sensor_id;sensor_type;location;lat;lon;timestamp;pressure;altitude;pressure_sealevel;temperature;humidity
78144;BME280;67394;52.522;13.622;2023-12-04T00:00:10;101589.97;;;-5.23;100.00
78144;BME280;67394;52.522;13.622;2023-12-04T00:02:36;101586.34;;;-5.26;100.00
78144;BME280;67394;52.522;13.622;2023-12-04T00:05:04;101591.09;;;-5.29;100.00
78144;BME280;67394;52.522;13.622;2023-12-04T00:07:30;101579.78;;;-5.36;100.00
78144;BME280;67394;52.522;13.622;2023-12-04T00:09:57;101583.03;;;-5.37;100.00
78144;BME280;67394;52.522;13.622;2023-12-04T00:12:23;101571.06;;;-5.41;100.00
78144;BME280;67394;52.522;13.622;2023-12-04T00:14:50;101576.69;;;-5.43;100.00
78144;BME280;67394;52.522;13.622;2023-12-04T00:17:17;101576.19;;;-5.49;100.00
78144;BME280;67394;52.522;13.622;2023-12-04T00:19:43;101581.34;;;-5.58;100.00
78144;BME280;67394;52.522;13.622;2023-12-04T00:22:10;101578.09;;;-5.57;100.00
78144;BME280;67394;52.522;13.622;2023-12-04T00:24:36;101571.38;;;-5.58;100.00
78144;BME280;67394;52.522;13.622;2023-12-04T00:27:03;101575.00;;;-5.65;100.00
78144;BME280;67394;52.522;13.622;2023-12-04T00:29:30;101571.41;;;-5.68;100.00
78144;BME280;67394;52.522;13.622;2023-12-04T00:31:56;101574.28;;;-5.74;100.00
78144;BME280;67394;52.522;13.622;2023-12-04T00:34:22;101580.16;;;-5.73;100.00
78144;BME280;67394;52.522;13.622;2023-12-04T00:36:49;101576.25;;;-5.70;100.00
78144;BME280;67394;52.522;13.622;2023-12-04T00:39:16;101575.53;;;-5.79;100.00
78144;BME280;67394;52.522;13.622;2023-12-04T00:41:42;101574.19;;;-5.85;100.00
78144;BME280;67394;52.522;13.622;2023-12-04T00:44:09;101581.34;;;-5.90;100.00
78144;BME280;67394;52.522;13.622;2023-12-04T00:46:36;101587.06;;;-5.91;100.00
78144;BME280;67394;52.522;13.622;2023-12-04T00:49:02;101585.44;;;-5.91;100.00
78144;BME280;67394;52.522;13.622;2023-12-04T00:51:29;101578.97;;;-5.99;100.00
78144;BME280;67394;52.522;13.622;2023-12-04T00:54:02;101586.47;;;-5.99;100.00
78144;BME280;67394;52.522;13.622;2023-12-04T00:56:29;101591.19;;;-6.02;100.00
78144;BME280;67394;52.522;13.622;2023-12-04T00:58:55;101595.31;;;-6.02;100.00
78144;BME280;67394;52.522;13.622;2023-12-04T01:01:22;101598.69;;;-6.02;100.00
78144;BME280;67394;52.522;13.622;2023-12-04T01:03:48;101606.81;;;-6.04;100.00
78144;BME280;67394;52.522;13.622;2023-12-04T01:06:22;101595.84;;;-6.06;100.00
78144;BME280;67394;52.522;13.622;2023-12-04T01:08:49;101597.69;;;-6.04;100.00
78144;BME280;67394;52.522;13.622;2023-12-04T01:11:17;101596.47;;;-6.09;100.00
78144;BME280;67394;52.522;13.622;2023-12-04T01:13:44;101596.19;;;-6.12;100.00
78144;BME280;67394;52.522;13.622;2023-12-04T01:16:11;101591.09;;;-6.13;100.00
78144;BME280;67394;52.522;13.622;2023-12-04T01:18:38;101594.59;;;-6.11;100.00
78144;BME280;67394;52.522;13.622;2023-12-04T01:21:04;101585.22;;;-6.14;100.00
78144;BME280;67394;52.522;13.622;2023-12-04T01:23:31;101582.63;;;-6.15;100.00
78144;BME280;67394;52.522;13.622;2023-12-04T01:25:58;101580.63;;;-6.19;100.00
78144;BME280;67394;52.522;13.622;2023-12-04T01:28:25;101576.25;;;-6.22;100.00
78144;BME280;67394;52.522;13.622;2023-12-04T01:30:51;101571.13;;;-6.23;100.00
78144;BME280;67394;52.522;13.622;2023-12-04T01:33:18;101567.56;;;-6.27;100.00
78144;BME280;67394;52.522;13.622;2023-12-04T01:35:45;101573.28;;;-6.28;100.00
78144;BME280;67394;52.522;13.622;2023-12-04T01:38:12;101570.78;;;-6.28;100.00
78144;BME280;67394;52.522;13.622;2023-12-04T01:40:39;101570.66;;;-6.30;100.00
78144;BME280;67394;52.522;13.622;2023-12-04T01:43:05;101562.78;;;-6.34;100.00
78144;BME280;67394;52.522;13.622;2023-12-04T01:45:32;101566.28;;;-6.32;100.00
78144;BME280;67394;52.522;13.622;2023-12-04T01:47:58;101559.31;;;-6.36;100.00
78144;BME280;67394;52.522;13.622;2023-12-04T01:50:25;101553.47;;;-6.26;100.00
78144;BME280;67394;52.522;13.622;2023-12-04T01:52:53;101547.97;;;-6.33;100.00
78144;BME280;67394;52.522;13.622;2023-12-04T01:55:20;101553.34;;;-6.38;100.00
78144;BME280;67394;52.522;13.622;2023-12-04T01:57:47;101556.06;;;-6.45;100.00
78144;BME280;67394;52.522;13.622;2023-12-04T02:00:14;101551.47;;;-6.51;100.00
78144;BME280;67394;52.522;13.622;2023-12-04T02:02:41;101550.09;;;-6.47;100.00
78144;BME280;67394;52.522;13.622;2023-12-04T02:05:08;101544.59;;;-6.43;100.00
78144;BME280;67394;52.522;13.622;2023-12-04T02:07:35;101533.13;;;-6.41;100.00
78144;BME280;67394;52.522;13.622;2023-12-04T02:10:02;101539.25;;;-6.38;100.00
78144;BME280;67394;52.522;13.622;2023-12-04T02:12:29;101539.13;;;-6.39;100.00
78144;BME280;67394;52.522;13.622;2023-12-04T02:14:57;101528.63;;;-6.35;100.00
78144;BME280;67394;52.522;13.622;2023-12-04T02:17:24;101529.63;;;-6.33;100.00
78144;BME280;67394;52.522;13.622;2023-12-04T02:19:52;101527.53;;;-6.29;100.00
78144;BME280;67394;52.522;13.622;2023-12-04T02:22:19;101522.78;;;-6.25;100.00
78144;BME280;67394;52.522;13.622;2023-12-04T02:24:47;101526.16;;;-6.25;100.00
78144;BME280;67394;52.522;13.622;2023-12-04T02:27:23;101517.03;;;-6.24;100.00
78144;BME280;67394;52.522;13.622;2023-12-04T02:29:53;101522.25;;;-6.21;100.00
78144;BME280;67394;52.522;13.622;2023-12-04T02:32:23;101514.44;;;-6.26;100.00
78144;BME280;67394;52.522;13.622;2023-12-04T02:34:52;101515.94;;;-6.28;100.00
78144;BME280;67394;52.522;13.622;2023-12-04T02:37:21;101506.94;;;-6.26;100.00
78144;BME280;67394;52.522;13.622;2023-12-04T02:39:50;101507.69;;;-6.27;100.00
78144;BME280;67394;52.522;13.622;2023-12-04T02:42:16;101515.19;;;-6.27;100.00
78144;BME280;67394;52.522;13.622;2023-12-04T02:44:43;101519.91;;;-6.30;100.00
78144;BME280;67394;52.522;13.622;2023-12-04T02:47:10;101506.19;;;-6.35;100.00
78144;BME280;67394;52.522;13.622;2023-12-04T02:49:36;101514.78;;;-6.32;100.00
78144;BME280;67394;52.522;13.622;2023-12-04T02:52:03;101513.78;;;-6.34;100.00
78144;BME280;67394;52.522;13.622;2023-12-04T02:54:29;101501.31;;;-6.34;100.00
78144;BME280;67394;52.522;13.622;2023-12-04T02:56:56;101501.09;;;-6.37;100.00
78144;BME280;67394;52.522;13.622;2023-12-04T02:59:23;101507.19;;;-6.33;100.00
78144;BME280;67394;52.522;13.622;2023-12-04T03:01:49;101503.69;;;-6.35;100.00
78144;BME280;67394;52.522;13.622;2023-12-04T03:04:16;101495.47;;;-6.34;100.00
78144;BME280;67394;52.522;13.622;2023-12-04T03:06:43;101498.97;;;-6.32;100.00
78144;BME280;67394;52.522;13.622;2023-12-04T03:09:09;101500.72;;;-6.31;100.00
78144;BME280;67394;52.522;13.622;2023-12-04T03:11:39;101492.22;;;-6.33;100.00
78144;BME280;67394;52.522;13.622;2023-12-04T03:14:06;101493.84;;;-6.34;100.00
78144;BME280;67394;52.522;13.622;2023-12-04T03:16:32;101495.38;;;-6.36;100.00
78144;BME280;67394;52.522;13.622;2023-12-04T03:18:59;101480.28;;;-6.37;100.00
78144;BME280;67394;52.522;13.622;2023-12-04T03:21:26;101487.03;;;-6.36;100.00
78144;BME280;67394;52.522;13.622;2023-12-04T03:23:53;101480.63;;;-6.33;100.00
78144;BME280;67394;52.522;13.622;2023-12-04T03:26:19;101482.03;;;-6.36;100.00
78144;BME280;67394;52.522;13.622;2023-12-04T03:28:46;101474.91;;;-6.32;100.00
78144;BME280;67394;52.522;13.622;2023-12-04T03:31:13;101473.69;;;-6.37;100.00
78144;BME280;67394;52.522;13.622;2023-12-04T03:33:39;101466.28;;;-6.35;100.00
78144;BME280;67394;52.522;13.622;2023-12-04T03:36:06;101478.53;;;-6.38;100.00
78144;BME280;67394;52.522;13.622;2023-12-04T03:38:33;101469.31;;;-6.39;100.00
78144;BME280;67394;52.522;13.622;2023-12-04T03:41:00;101467.81;;;-6.37;100.00
78144;BME280;67394;52.522;13.622;2023-12-04T03:43:26;101470.19;;;-6.39;100.00
78144;BME280;67394;52.522;13.622;2023-12-04T03:45:53;101472.81;;;-6.37;100.00
78144;BME280;67394;52.522;13.622;2023-12-04T03:48:19;101468.91;;;-6.34;100.00
78144;BME280;67394;52.522;13.622;2023-12-04T03:50:46;101472.28;;;-6.33;100.00
78144;BME280;67394;52.522;13.622;2023-12-04T03:53:12;101473.78;;;-6.35;100.00
78144;BME280;67394;52.522;13.622;2023-12-04T03:55:39;101468.41;;;-6.30;100.00
78144;BME280;67394;52.522;13.622;2023-12-04T03:58:06;101466.53;;;-6.32;100.00
78144;BME280;67394;52.522;13.622;2023-12-04T04:00:32;101456.44;;;-6.34;100.00
78144;BME280;67394;52.522;13.622;2023-12-04T04:03:00;101459.34;;;-6.39;100.00
78144;BME280;67394;52.522;13.622;2023-12-04T04:05:26;101457.84;;;-6.37;100.00
78144;BME280;67394;52.522;13.622;2023-12-04T04:07:53;101454.81;;;-6.33;100.00
78144;BME280;67394;52.522;13.622;2023-12-04T04:10:19;101447.22;;;-6.35;100.00
78144;BME280;67394;52.522;13.622;2023-12-04T04:12:46;101439.13;;;-6.32;100.00
78144;BME280;67394;52.522;13.622;2023-12-04T04:15:12;101426.91;;;-6.29;100.00
78144;BME280;67394;52.522;13.622;2023-12-04T04:17:39;101431.41;;;-6.25;100.00
78144;BME280;67394;52.522;13.622;2023-12-04T04:20:06;101432.47;;;-6.21;100.00
78144;BME280;67394;52.522;13.622;2023-12-04T04:22:33;101432.59;;;-6.20;100.00
78144;BME280;67394;52.522;13.622;2023-12-04T04:24:59;101439.34;;;-6.19;100.00
78144;BME280;67394;52.522;13.622;2023-12-04T04:27:26;101441.72;;;-6.20;100.00
78144;BME280;67394;52.522;13.622;2023-12-04T04:29:53;101446.41;;;-6.13;100.00
78144;BME280;67394;52.522;13.622;2023-12-04T04:32:19;101443.19;;;-6.12;100.00
78144;BME280;67394;52.522;13.622;2023-12-04T04:34:46;101447.66;;;-6.08;100.00
78144;BME280;67394;52.522;13.622;2023-12-04T04:37:12;101441.81;;;-6.09;100.00
78144;BME280;67394;52.522;13.622;2023-12-04T04:39:40;101439.31;;;-6.09;100.00
78144;BME280;67394;52.522;13.622;2023-12-04T04:42:06;101443.56;;;-6.08;100.00
78144;BME280;67394;52.522;13.622;2023-12-04T04:44:33;101437.81;;;-6.07;100.00
78144;BME280;67394;52.522;13.622;2023-12-04T04:46:59;101435.81;;;-6.11;100.00
78144;BME280;67394;52.522;13.622;2023-12-04T04:49:26;101441.69;;;-6.10;100.00
78144;BME280;67394;52.522;13.622;2023-12-04T04:51:53;101435.81;;;-6.11;100.00
78144;BME280;67394;52.522;13.622;2023-12-04T04:54:19;101439.94;;;-6.11;100.00
78144;BME280;67394;52.522;13.622;2023-12-04T04:56:46;101441.06;;;-6.08;100.00
78144;BME280;67394;52.522;13.622;2023-12-04T04:59:13;101432.81;;;-6.07;100.00
78144;BME280;67394;52.522;13.622;2023-12-04T05:01:40;101434.31;;;-6.09;100.00
78144;BME280;67394;52.522;13.622;2023-12-04T05:04:07;101436.06;;;-6.08;100.00
78144;BME280;67394;52.522;13.622;2023-12-04T05:06:33;101432.56;;;-6.10;100.00
78144;BME280;67394;52.522;13.622;2023-12-04T05:09:00;101429.69;;;-6.04;100.00
78144;BME280;67394;52.522;13.622;2023-12-04T05:11:27;101424.41;;;-5.97;100.00
78144;BME280;67394;52.522;13.622;2023-12-04T05:13:53;101415.31;;;-5.97;100.00
78144;BME280;67394;52.522;13.622;2023-12-04T05:16:20;101416.41;;;-5.93;100.00
78144;BME280;67394;52.522;13.622;2023-12-04T05:18:46;101426.28;;;-5.95;100.00
78144;BME280;67394;52.522;13.622;2023-12-04T05:21:13;101421.19;;;-5.96;100.00
78144;BME280;67394;52.522;13.622;2023-12-04T05:23:40;101418.28;;;-5.91;100.00
78144;BME280;67394;52.522;13.622;2023-12-04T05:26:07;101414.56;;;-5.96;100.00
78144;BME280;67394;52.522;13.622;2023-12-04T05:28:34;101405.34;;;-5.97;100.00
78144;BME280;67394;52.522;13.622;2023-12-04T05:31:01;101404.34;;;-5.99;100.00
78144;BME280;67394;52.522;13.622;2023-12-04T05:33:27;101399.84;;;-6.03;100.00
78144;BME280;67394;52.522;13.622;2023-12-04T05:35:55;101398.78;;;-6.06;100.00
78144;BME280;67394;52.522;13.622;2023-12-04T05:38:22;101401.00;;;-6.09;100.00
78144;BME280;67394;52.522;13.622;2023-12-04T05:40:48;101399.16;;;-6.12;100.00
78144;BME280;67394;52.522;13.622;2023-12-04T05:43:15;101405.13;;;-6.10;100.00
78144;BME280;67394;52.522;13.622;2023-12-04T05:45:41;101396.53;;;-6.13;100.00
78144;BME280;67394;52.522;13.622;2023-12-04T05:48:09;101394.03;;;-6.13;100.00
78144;BME280;67394;52.522;13.622;2023-12-04T05:50:35;101393.06;;;-6.15;100.00
78144;BME280;67394;52.522;13.622;2023-12-04T05:53:02;101393.06;;;-6.15;100.00
78144;BME280;67394;52.522;13.622;2023-12-04T05:55:29;101394.16;;;-6.12;100.00
78144;BME280;67394;52.522;13.622;2023-12-04T05:57:58;101392.19;;;-6.16;100.00
78144;BME280;67394;52.522;13.622;2023-12-04T06:00:25;101399.69;;;-6.16;100.00
78144;BME280;67394;52.522;13.622;2023-12-04T06:02:55;101391.31;;;-6.16;100.00
78144;BME280;67394;52.522;13.622;2023-12-04T06:05:21;101382.84;;;-6.18;100.00
78144;BME280;67394;52.522;13.622;2023-12-04T06:07:48;101383.84;;;-6.16;100.00
78144;BME280;67394;52.522;13.622;2023-12-04T06:10:15;101386.56;;;-6.13;100.00
78144;BME280;67394;52.522;13.622;2023-12-04T06:12:41;101383.09;;;-6.15;100.00
78144;BME280;67394;52.522;13.622;2023-12-04T06:15:08;101374.84;;;-6.14;100.00
78144;BME280;67394;52.522;13.622;2023-12-04T06:17:38;101381.34;;;-6.16;100.00
78144;BME280;67394;52.522;13.622;2023-12-04T06:20:06;101376.56;;;-6.13;100.00
78144;BME280;67394;52.522;13.622;2023-12-04T06:22:33;101372.94;;;-6.07;100.00
78144;BME280;67394;52.522;13.622;2023-12-04T06:24:59;101377.31;;;-6.04;100.00
78144;BME280;67394;52.522;13.622;2023-12-04T06:27:26;101371.53;;;-6.03;100.00
78144;BME280;67394;52.522;13.622;2023-12-04T06:29:53;101371.41;;;-5.95;100.00
78144;BME280;67394;52.522;13.622;2023-12-04T06:32:20;101372.78;;;-5.98;100.00
78144;BME280;67394;52.522;13.622;2023-12-04T06:34:47;101376.91;;;-5.99;100.00
78144;BME280;67394;52.522;13.622;2023-12-04T06:37:14;101381.25;;;-5.96;100.00
78144;BME280;67394;52.522;13.622;2023-12-04T06:39:41;101378.13;;;-5.94;100.00
78144;BME280;67394;52.522;13.622;2023-12-04T06:42:10;101370.66;;;-5.94;100.00
78144;BME280;67394;52.522;13.622;2023-12-04T06:44:37;101370.97;;;-5.89;100.00
78144;BME280;67394;52.522;13.622;2023-12-04T06:47:05;101365.44;;;-5.85;100.00
78144;BME280;67394;52.522;13.622;2023-12-04T06:49:34;101367.41;;;-5.81;100.00
78144;BME280;67394;52.522;13.622;2023-12-04T06:52:01;101367.25;;;-5.72;100.00
78144;BME280;67394;52.522;13.622;2023-12-04T06:54:27;101369.09;;;-5.70;100.00
78144;BME280;67394;52.522;13.622;2023-12-04T06:56:54;101366.06;;;-5.66;100.00
78144;BME280;67394;52.522;13.622;2023-12-04T06:59:21;101368.56;;;-5.66;100.00
78144;BME280;67394;52.522;13.622;2023-12-04T07:01:47;101369.91;;;-5.59;100.00
78144;BME280;67394;52.522;13.622;2023-12-04T07:04:16;101365.91;;;-5.57;100.00
78144;BME280;67394;52.522;13.622;2023-12-04T07:06:43;101358.97;;;-5.49;100.00
78144;BME280;67394;52.522;13.622;2023-12-04T07:09:09;101360.19;;;-5.44;100.00
78144;BME280;67394;52.522;13.622;2023-12-04T07:11:36;101358.69;;;-5.42;100.00
78144;BME280;67394;52.522;13.622;2023-12-04T07:14:02;101349.03;;;-5.38;100.00
78144;BME280;67394;52.522;13.622;2023-12-04T07:16:29;101348.38;;;-5.35;100.00
78144;BME280;67394;52.522;13.622;2023-12-04T07:18:56;101336.66;;;-5.36;100.00
78144;BME280;67394;52.522;13.622;2023-12-04T07:21:22;101332.75;;;-5.33;100.00
78144;BME280;67394;52.522;13.622;2023-12-04T07:23:49;101325.50;;;-5.30;100.00
78144;BME280;67394;52.522;13.622;2023-12-04T07:26:15;101323.44;;;-5.24;100.00
78144;BME280;67394;52.522;13.622;2023-12-04T07:28:45;101325.94;;;-5.24;100.00
78144;BME280;67394;52.522;13.622;2023-12-04T07:31:11;101336.28;;;-5.19;100.00
78144;BME280;67394;52.522;13.622;2023-12-04T07:33:38;101329.09;;;-5.14;100.00
78144;BME280;67394;52.522;13.622;2023-12-04T07:36:05;101330.19;;;-5.11;100.00
78144;BME280;67394;52.522;13.622;2023-12-04T07:38:32;101332.25;;;-5.05;100.00
78144;BME280;67394;52.522;13.622;2023-12-04T07:40:58;101334.75;;;-5.05;100.00
78144;BME280;67394;52.522;13.622;2023-12-04T07:43:26;101340.00;;;-5.02;100.00
78144;BME280;67394;52.522;13.622;2023-12-04T07:45:52;101330.53;;;-4.95;100.00
78144;BME280;67394;52.522;13.622;2023-12-04T07:48:22;101336.41;;;-4.94;100.00
78144;BME280;67394;52.522;13.622;2023-12-04T07:50:48;101329.66;;;-4.95;100.00
78144;BME280;67394;52.522;13.622;2023-12-04T07:53:15;101325.25;;;-4.88;100.00
78144;BME280;67394;52.522;13.622;2023-12-04T07:55:42;101324.44;;;-4.87;100.00
78144;BME280;67394;52.522;13.622;2023-12-04T07:58:09;101326.19;;;-4.86;100.00
78144;BME280;67394;52.522;13.622;2023-12-04T08:00:35;101333.16;;;-4.82;100.00
78144;BME280;67394;52.522;13.622;2023-12-04T08:03:02;101330.22;;;-4.76;100.00
78144;BME280;67394;52.522;13.622;2023-12-04T08:05:29;101324.56;;;-4.73;100.00
78144;BME280;67394;52.522;13.622;2023-12-04T08:07:55;101326.66;;;-4.68;100.00
78144;BME280;67394;52.522;13.622;2023-12-04T08:10:22;101316.41;;;-4.59;100.00
78144;BME280;67394;52.522;13.622;2023-12-04T08:12:49;101317.50;;;-4.56;100.00
78144;BME280;67394;52.522;13.622;2023-12-04T08:15:15;101329.44;;;-4.52;100.00
78144;BME280;67394;52.522;13.622;2023-12-04T08:17:42;101323.16;;;-4.47;100.00
78144;BME280;67394;52.522;13.622;2023-12-04T08:20:09;101321.81;;;-4.42;100.00
78144;BME280;67394;52.522;13.622;2023-12-04T08:22:36;101314.00;;;-4.34;100.00
78144;BME280;67394;52.522;13.622;2023-12-04T08:25:03;101314.19;;;-4.31;100.00
78144;BME280;67394;52.522;13.622;2023-12-04T08:27:32;101313.09;;;-4.23;100.00
78144;BME280;67394;52.522;13.622;2023-12-04T08:29:58;101315.69;;;-4.22;100.00
78144;BME280;67394;52.522;13.622;2023-12-04T08:32:25;101319.63;;;-4.14;100.00
78144;BME280;67394;52.522;13.622;2023-12-04T08:34:51;101323.63;;;-4.04;100.00
78144;BME280;67394;52.522;13.622;2023-12-04T08:37:19;101320.88;;;-3.95;100.00
78144;BME280;67394;52.522;13.622;2023-12-04T08:39:45;101321.53;;;-3.98;100.00
78144;BME280;67394;52.522;13.622;2023-12-04T08:42:12;101318.47;;;-3.94;100.00
78144;BME280;67394;52.522;13.622;2023-12-04T08:44:48;101323.66;;;-3.91;100.00
78144;BME280;67394;52.522;13.622;2023-12-04T08:47:15;101324.09;;;-3.85;100.00
78144;BME280;67394;52.522;13.622;2023-12-04T08:49:43;101324.22;;;-3.83;100.00
78144;BME280;67394;52.522;13.622;2023-12-04T08:52:15;101324.72;;;-3.76;100.00
78144;BME280;67394;52.522;13.622;2023-12-04T08:54:41;101324.16;;;-3.72;100.00
78144;BME280;67394;52.522;13.622;2023-12-04T08:57:08;101325.44;;;-3.65;100.00
78144;BME280;67394;52.522;13.622;2023-12-04T08:59:35;101321.69;;;-3.58;100.00
78144;BME280;67394;52.522;13.622;2023-12-04T09:02:02;101314.69;;;-3.51;100.00
78144;BME280;67394;52.522;13.622;2023-12-04T09:04:32;101315.47;;;-3.52;100.00
78144;BME280;67394;52.522;13.622;2023-12-04T09:06:59;101315.00;;;-3.46;100.00
78144;BME280;67394;52.522;13.622;2023-12-04T09:09:29;101311.81;;;-3.44;100.00
78144;BME280;67394;52.522;13.622;2023-12-04T09:11:56;101313.84;;;-3.38;100.00
78144;BME280;67394;52.522;13.622;2023-12-04T09:14:23;101307.31;;;-3.36;100.00
78144;BME280;67394;52.522;13.622;2023-12-04T09:16:49;101317.75;;;-3.30;100.00
78144;BME280;67394;52.522;13.622;2023-12-04T09:19:15;101309.34;;;-3.30;100.00
78144;BME280;67394;52.522;13.622;2023-12-04T09:21:42;101313.69;;;-3.28;100.00
78144;BME280;67394;52.522;13.622;2023-12-04T09:24:09;101320.44;;;-3.27;100.00
78144;BME280;67394;52.522;13.622;2023-12-04T09:26:36;101312.34;;;-3.23;100.00
78144;BME280;67394;52.522;13.622;2023-12-04T09:29:02;101319.00;;;-3.23;100.00
78144;BME280;67394;52.522;13.622;2023-12-04T09:31:29;101317.47;;;-3.21;100.00
78144;BME280;67394;52.522;13.622;2023-12-04T09:33:56;101311.59;;;-3.22;100.00
78144;BME280;67394;52.522;13.622;2023-12-04T09:36:27;101306.03;;;-3.18;100.00
78144;BME280;67394;52.522;13.622;2023-12-04T09:38:53;101307.53;;;-3.07;100.00
78144;BME280;67394;52.522;13.622;2023-12-04T09:41:20;101306.00;;;-3.05;100.00
78144;BME280;67394;52.522;13.622;2023-12-04T09:43:47;101297.06;;;-3.01;100.00
78144;BME280;67394;52.522;13.622;2023-12-04T09:46:14;101302.06;;;-3.01;100.00
78144;BME280;67394;52.522;13.622;2023-12-04T09:48:41;101294.47;;;-2.89;100.00
78144;BME280;67394;52.522;13.622;2023-12-04T09:51:10;101298.72;;;-2.88;100.00
78144;BME280;67394;52.522;13.622;2023-12-04T09:53:37;101285.88;;;-2.80;100.00
78144;BME280;67394;52.522;13.622;2023-12-04T09:56:07;101281.75;;;-2.79;100.00
78144;BME280;67394;52.522;13.622;2023-12-04T09:58:39;101274.50;;;-2.88;100.00
78144;BME280;67394;52.522;13.622;2023-12-04T10:01:07;101278.34;;;-2.80;100.00
78144;BME280;67394;52.522;13.622;2023-12-04T10:03:35;101276.31;;;-2.72;100.00
78144;BME280;67394;52.522;13.622;2023-12-04T10:06:02;101271.69;;;-2.66;100.00
78144;BME280;67394;52.522;13.622;2023-12-04T10:08:29;101270.72;;;-2.55;100.00
78144;BME280;67394;52.522;13.622;2023-12-04T10:10:55;101278.63;;;-2.49;100.00
78144;BME280;67394;52.522;13.622;2023-12-04T10:13:22;101272.84;;;-2.48;100.00
78144;BME280;67394;52.522;13.622;2023-12-04T10:16:08;101268.16;;;-2.42;100.00
78144;BME280;67394;52.522;13.622;2023-12-04T10:18:35;101265.09;;;-2.38;100.00
78144;BME280;67394;52.522;13.622;2023-12-04T10:21:02;101260.25;;;-2.35;100.00
78144;BME280;67394;52.522;13.622;2023-12-04T10:23:40;101256.91;;;-2.21;100.00
78144;BME280;67394;52.522;13.622;2023-12-04T10:26:07;101261.84;;;-2.22;100.00
78144;BME280;67394;52.522;13.622;2023-12-04T10:28:34;101256.34;;;-2.16;100.00
78144;BME280;67394;52.522;13.622;2023-12-04T10:31:01;101255.34;;;-2.05;100.00
78144;BME280;67394;52.522;13.622;2023-12-04T10:33:30;101253.41;;;-2.09;100.00
78144;BME280;67394;52.522;13.622;2023-12-04T10:35:57;101257.94;;;-2.04;100.00
78144;BME280;67394;52.522;13.622;2023-12-04T10:38:24;101253.94;;;-2.00;100.00
78144;BME280;67394;52.522;13.622;2023-12-04T10:40:51;101245.94;;;-1.95;100.00
78144;BME280;67394;52.522;13.622;2023-12-04T10:43:20;101244.22;;;-1.81;100.00
78144;BME280;67394;52.522;13.622;2023-12-04T10:45:48;101236.94;;;-1.76;100.00
78144;BME280;67394;52.522;13.622;2023-12-04T10:48:17;101233.16;;;-1.70;100.00
78144;BME280;67394;52.522;13.622;2023-12-04T10:50:48;101220.59;;;-1.70;100.00
78144;BME280;67394;52.522;13.622;2023-12-04T10:53:16;101216.69;;;-1.65;100.00
78144;BME280;67394;52.522;13.622;2023-12-04T10:55:44;101219.53;;;-1.59;100.00
78144;BME280;67394;52.522;13.622;2023-12-04T10:58:11;101218.16;;;-1.54;100.00
78144;BME280;67394;52.522;13.622;2023-12-04T11:00:46;101208.72;;;-1.58;100.00
78144;BME280;67394;52.522;13.622;2023-12-04T11:03:40;101210.91;;;-1.49;100.00
78144;BME280;67394;52.522;13.622;2023-12-04T11:06:11;101200.41;;;-1.42;100.00
78144;BME280;67394;52.522;13.622;2023-12-04T11:08:39;101195.19;;;-1.45;100.00
78144;BME280;67394;52.522;13.622;2023-12-04T11:11:15;101197.28;;;-1.38;100.00
78144;BME280;67394;52.522;13.622;2023-12-04T11:13:48;101189.81;;;-1.36;100.00
78144;BME280;67394;52.522;13.622;2023-12-04T11:18:51;101191.31;;;-1.40;100.00
78144;BME280;67394;52.522;13.622;2023-12-04T11:21:22;101183.84;;;-1.38;100.00
78144;BME280;67394;52.522;13.622;2023-12-04T11:23:50;101181.06;;;-1.28;100.00
78144;BME280;67394;52.522;13.622;2023-12-04T11:26:17;101178.78;;;-1.24;100.00
78144;BME280;67394;52.522;13.622;2023-12-04T11:28:44;101176.66;;;-1.32;100.00
78144;BME280;67394;52.522;13.622;2023-12-04T11:31:11;101167.53;;;-1.30;100.00
78144;BME280;67394;52.522;13.622;2023-12-04T11:33:38;101162.75;;;-1.26;100.00
78144;BME280;67394;52.522;13.622;2023-12-04T11:36:12;101165.25;;;-1.26;100.00
78144;BME280;67394;52.522;13.622;2023-12-04T11:38:45;101171.88;;;-1.28;100.00
78144;BME280;67394;52.522;13.622;2023-12-04T11:41:18;101166.75;;;-1.29;100.00
78144;BME280;67394;52.522;13.622;2023-12-04T11:43:52;101162.50;;;-1.30;100.00
78144;BME280;67394;52.522;13.622;2023-12-04T11:46:20;101168.56;;;-1.27;100.00
78144;BME280;67394;52.522;13.622;2023-12-04T11:48:47;101164.34;;;-1.28;100.00
78144;BME280;67394;52.522;13.622;2023-12-04T11:52:03;101165.84;;;-1.15;100.00
78144;BME280;67394;52.522;13.622;2023-12-04T11:54:03;101161.09;;;-1.11;100.00
78144;BME280;67394;52.522;13.622;2023-12-04T11:56:30;101158.09;;;-1.03;100.00
78144;BME280;67394;52.522;13.622;2023-12-04T11:59:07;101148.03;;;-1.03;100.00
78144;BME280;67394;52.522;13.622;2023-12-04T12:01:36;101155.69;;;-1.02;100.00
78144;BME280;67394;52.522;13.622;2023-12-04T12:04:09;101152.00;;;-0.92;100.00
78144;BME280;67394;52.522;13.622;2023-12-04T12:06:36;101149.06;;;-0.85;100.00
78144;BME280;67394;52.522;13.622;2023-12-04T12:09:03;101148.41;;;-0.81;100.00
78144;BME280;67394;52.522;13.622;2023-12-04T12:11:31;101149.88;;;-0.85;100.00
78144;BME280;67394;52.522;13.622;2023-12-04T12:13:59;101140.16;;;-0.79;100.00
78144;BME280;67394;52.522;13.622;2023-12-04T12:16:25;101133.00;;;-0.71;100.00
78144;BME280;67394;52.522;13.622;2023-12-04T12:18:53;101130.31;;;-0.74;100.00
78144;BME280;67394;52.522;13.622;2023-12-04T12:21:21;101135.59;;;-0.69;100.00
78144;BME280;67394;52.522;13.622;2023-12-04T12:23:48;101130.09;;;-0.79;100.00
78144;BME280;67394;52.522;13.622;2023-12-04T12:26:15;101124.97;;;-0.80;100.00
78144;BME280;67394;52.522;13.622;2023-12-04T12:28:41;101126.63;;;-0.81;100.00
78144;BME280;67394;52.522;13.622;2023-12-04T12:31:08;101123.16;;;-0.83;100.00
78144;BME280;67394;52.522;13.622;2023-12-04T12:33:34;101120.03;;;-0.79;100.00